x

North Michigan- Halfway Between North Manitou And Washington Islands. (45002) Wave Buoy

3:50pm - Fri 29th Aug 2014 All times are CDT. -5 hours from GMT.

  • Sig Wave height 3.9ft
  • Swell Direction
  • Peak Period 5s
  • Average Period 5s
  • Wind
    11mph
  • Sea Temp 65°f
  • Air Temp 67°f
  • Sea Pressure 1011.5mb
  • North Michigan- Halfway Between North Manitou And Washington Islands.
  • North Michigan- Halfway Between North Manitou And Washington Islands.

More Historic Weather Station data

Upgrade to MSW Pro to gain access to the past 30 days of data for over 8000 Wavebouys and Weather Stations around the globe.

Join Pro

Comparision Forecast

View Surf forecast
   
Fri 08/29 3:50pm 4ft 5s 5s 11
mph
1011.5mb 65f 67f
2:50pm 4ft 5s 4s 18 22 mph 1011.8mb 65f 68f
1:50pm 4ft 5s 4s 20 25 mph 1012.3mb 65f 67f
12:50pm 3ft 4s 4s 20 25 mph 1012.7mb 65f 66f
11:50am 3ft 4s 4s 18 22 mph 1013.9mb 65f 64f
10:50am 2.5ft 4s 4s 18 20 mph 1014.5mb 65f 63f
9:50am  -   -   -  18 22 mph 1015.1mb 65f 63f
8:50am 2ft 3s 3s 20 25 mph 1015.2mb 65f 61f
7:50am 1.6ft 3s 3s 20 22 mph 1015.7mb 65f 61f
6:50am 2ft 3s 3s 16 18 mph 1016.5mb 65f 61f
5:50am 1.3ft 3s 3s 18 22 mph 1016.4mb 65f 64f
4:50am 1.3ft 3s 3s 16 18 mph 1016.5mb 65f 65f
3:50am 1.6ft 3s 3s 13 16 mph 1016.6mb 65f 65f
2:50am 1.3ft 3s 3s 16 18 mph 1017mb 65f 65f
1:50am 1ft 3s 3s 16 18 mph 1017.5mb 65f 65f
12:50am 1ft 3s 3s 16 18 mph 1018.1mb 65f 65f
Thu 08/28 11:50pm 0.7ft  -  3s 13 16 mph 1018.5mb 65f 65f
10:50pm 0.3ft  -  3s 11 13 mph 1018.6mb 66f 65f
9:50pm 0.3ft  -  3s 9 11 mph 1019.1mb 66f 65f
8:50pm 0.3ft  -  3s 9 11 mph 1019.3mb 66f 64f
7:50pm 0.3ft  -  3s 7 9 mph 1019.5mb 66f 64f
6:50pm 0.3ft  -  3s 7 9 mph 1019.6mb 66f 64f
5:50pm 0.3ft  -  3s 7
mph
1019.9mb 66f 64f
4:50pm 0.3ft  -  3s 7 9 mph 1020.1mb 66f 63f
3:50pm 0.3ft  -  3s 4 7 mph 1020.7mb 66f 63f
2:50pm 0.3ft  -  3s 7 9 mph 1021.3mb 66f 63f
1:50pm 0.3ft  -  2s 7
mph
1021.8mb 66f 62f
12:50pm 0.3ft  -  3s 7 9 mph 1021.9mb 66f 62f
11:50am 0.3ft  -  3s 7 9 mph 1022.2mb 65f 62f
10:50am 0.3ft  -  3s 4 7 mph 1022.4mb 65f 62f
9:50am 0.3ft  -  3s 9
mph
1022.2mb 65f 62f
8:50am 0.3ft  -  3s 7 9 mph 1022.1mb 65f 62f
7:50am 0.3ft  -  3s 4
mph
1022.2mb 65f 62f
6:50am 0.3ft  -  3s  -  2 mph 1022.1mb 65f 63f
5:50am 0.3ft  -  3s 4 7 mph 1021.8mb 65f 62f
4:50am 0.7ft  -  3s 2 4 mph 1021.7mb 65f 62f
3:50am 0.7ft  -  3s 2 4 mph 1021.6mb 65f 62f
2:50am 0.7ft  -  3s 4 7 mph 1021.8mb 65f 63f
1:50am 1ft 3s 3s 4 7 mph 1021.9mb 65f 63f
12:50am 1ft 3s 3s 7 9 mph 1022.1mb 65f 63f
Wed 08/27 11:50pm 1ft 3s 3s 9 11 mph 1021.6mb 65f 63f
10:50pm 0.7ft  -  3s 11 13 mph 1021.4mb 65f 64f
9:50pm  -   -  3s 11 13 mph 1021mb 66f 64f
8:50pm  -   -  3s 9
mph
1021.3mb 66f 64f
7:50pm  -   -  4s 2 4 mph 1021.1mb 67f 63f
6:50pm  -   -  4s 2 4 mph 1021.1mb 67f 64f
5:50pm 0.3ft  -  3s 2 4 mph 1021.1mb 67f 64f
4:50pm  -   -  3s 2 4 mph 1021.2mb 67f 64f
3:50pm 0.3ft  -  3s 2
mph
1021.5mb 67f 63f
2:50pm 0.3ft  -  3s 4 7 mph 1021.7mb 67f 62f
1:50pm 0.3ft  -  3s 4 7 mph 1022.3mb 67f 62f
12:50pm 0.3ft  -  3s 4 7 mph 1022.3mb 67f 61f
11:50am 0.7ft  -  3s 2 4 mph 1022.4mb 66f 61f
10:50am 0.7ft  -  3s 7 9 mph 1022.6mb 65f 60f
9:50am 0.7ft  -  3s 7 9 mph 1022.4mb 65f 61f
8:50am 0.7ft  -  3s 9 11 mph 1021.8mb 65f 61f
7:50am 1ft 3s 3s 2 4 mph 1021.5mb 65f 61f
6:50am 1ft 3s 3s 9 11 mph 1021.1mb 65f 61f
5:50am 1ft 4s 3s 9 11 mph 1020.8mb 65f 62f
4:50am 1.3ft 3s 3s 9 11 mph 1020.8mb 65f 62f
3:50am 1.3ft 4s 3s 9 11 mph 1020.9mb 65f 62f
2:50am 1.6ft 4s 3s 11 13 mph 1020.6mb 65f 63f
1:50am 1.6ft 4s 3s 11 13 mph 1020.3mb 65f 62f
12:50am 2ft 4s 3s 16 18 mph 1019.9mb 65f 62f
Tue 08/26 11:50pm 2ft 3s 3s 16 18 mph 1019.9mb 66f 62f
10:50pm 0.7ft  -  2s 18 22 mph 1019.7mb 66f 62f
9:50pm 0.3ft  -  3s 13 20 mph 1019.3mb 66f 65f
8:50pm 0.3ft  -  3s 7
mph
1018.9mb 66f 65f
7:50pm 0.3ft  -  3s 4 7 mph 1018.6mb 66f 66f
6:50pm 0.3ft  -  3s 2 4 mph 1018.2mb 66f 67f
5:50pm 0.7ft  -  3s 7 9 mph 1018.5mb 66f 67f
4:50pm 0.7ft  -  3s 9
mph
1018.4mb 66f 67f
3:50pm 0.7ft  -  3s 7
mph
1018mb 66f 66f
2:50pm 0.7ft  -  3s 7 9 mph 1017.5mb 66f 66f
1:50pm 0.7ft  -  3s 7 9 mph 1018.5mb 66f 65f
12:50pm 0.7ft  -  3s 4
mph
1018.7mb 66f 65f
11:50am 0.7ft  -  3s 4 7 mph 1018.4mb 66f 65f
10:50am 1ft 4s 3s 7 9 mph 1018.3mb 66f 65f
9:50am 1ft 4s 4s 11 13 mph 1018.4mb 66f 65f
8:50am 1ft 4s 3s 4
mph
1017.7mb 65f 66f
7:50am 1.3ft 4s 4s 4
mph
1017.4mb 65f 66f
6:50am 1.3ft 4s 4s 4
mph
1016.6mb 65f 67f
5:50am 1.3ft 5s 4s 7
mph
1016.4mb 65f 67f
4:50am 1.6ft 4s 4s 9 11 mph 1015.4mb 65f 67f
3:50am 1.6ft 4s 4s 11 13 mph 1014.5mb 65f 67f
2:50am 2ft 5s 4s 11 13 mph 1014.4mb 65f 67f
1:50am 2.5ft 4s 4s 13 16 mph 1013.9mb 65f 67f
12:50am 2.5ft 5s 4s 16 18 mph 1013.6mb 65f 67f
Mon 08/25 11:50pm 2.5ft 5s 4s 16 18 mph 1013.3mb 65f 67f
10:50pm 3ft 5s 4s 16 18 mph 1013.2mb 65f 67f